sensor_id;sensor_type;location;lat;lon;timestamp;P1;durP1;ratioP1;P2;durP2;ratioP2
25237;SDS011;13185;50.872;5.306;2023-07-13T00:02:15;4.22;;;0.93;;
25237;SDS011;13185;50.872;5.306;2023-07-13T00:04:40;5.65;;;0.80;;
25237;SDS011;13185;50.872;5.306;2023-07-13T00:07:07;3.30;;;0.65;;
25237;SDS011;13185;50.872;5.306;2023-07-13T00:09:33;3.00;;;0.90;;
25237;SDS011;13185;50.872;5.306;2023-07-13T00:11:59;4.82;;;1.05;;
25237;SDS011;13185;50.872;5.306;2023-07-13T00:14:25;3.83;;;0.77;;
25237;SDS011;13185;50.872;5.306;2023-07-13T00:16:52;6.80;;;1.25;;
25237;SDS011;13185;50.872;5.306;2023-07-13T00:19:18;4.55;;;1.20;;
25237;SDS011;13185;50.872;5.306;2023-07-13T00:21:44;3.25;;;0.77;;
25237;SDS011;13185;50.872;5.306;2023-07-13T00:24:11;4.20;;;1.23;;
25237;SDS011;13185;50.872;5.306;2023-07-13T00:26:38;2.67;;;0.60;;
25237;SDS011;13185;50.872;5.306;2023-07-13T00:29:05;9.45;;;2.15;;
25237;SDS011;13185;50.872;5.306;2023-07-13T00:31:33;8.88;;;1.92;;
25237;SDS011;13185;50.872;5.306;2023-07-13T00:33:59;4.65;;;0.90;;
25237;SDS011;13185;50.872;5.306;2023-07-13T00:36:25;3.67;;;0.85;;
25237;SDS011;13185;50.872;5.306;2023-07-13T00:38:51;4.28;;;0.93;;
25237;SDS011;13185;50.872;5.306;2023-07-13T00:41:18;4.32;;;0.90;;
25237;SDS011;13185;50.872;5.306;2023-07-13T00:43:43;4.75;;;0.90;;
25237;SDS011;13185;50.872;5.306;2023-07-13T00:48:46;7.53;;;1.10;;
25237;SDS011;13185;50.872;5.306;2023-07-13T00:51:14;3.97;;;1.20;;
25237;SDS011;13185;50.872;5.306;2023-07-13T00:53:43;7.55;;;0.95;;
25237;SDS011;13185;50.872;5.306;2023-07-13T00:56:08;5.03;;;1.00;;
25237;SDS011;13185;50.872;5.306;2023-07-13T00:58:35;3.95;;;0.95;;
25237;SDS011;13185;50.872;5.306;2023-07-13T01:01:02;9.95;;;2.05;;
25237;SDS011;13185;50.872;5.306;2023-07-13T01:03:28;5.55;;;1.08;;
25237;SDS011;13185;50.872;5.306;2023-07-13T01:05:54;5.90;;;1.00;;
25237;SDS011;13185;50.872;5.306;2023-07-13T01:08:20;5.95;;;0.80;;
25237;SDS011;13185;50.872;5.306;2023-07-13T01:10:53;5.15;;;0.95;;
25237;SDS011;13185;50.872;5.306;2023-07-13T01:13:20;4.32;;;1.63;;
25237;SDS011;13185;50.872;5.306;2023-07-13T01:15:46;4.95;;;0.82;;
25237;SDS011;13185;50.872;5.306;2023-07-13T01:18:17;4.43;;;1.33;;
25237;SDS011;13185;50.872;5.306;2023-07-13T01:20:50;5.00;;;1.50;;
25237;SDS011;13185;50.872;5.306;2023-07-13T01:23:20;7.10;;;1.20;;
25237;SDS011;13185;50.872;5.306;2023-07-13T01:25:47;3.00;;;0.95;;
25237;SDS011;13185;50.872;5.306;2023-07-13T01:28:13;4.03;;;1.20;;
25237;SDS011;13185;50.872;5.306;2023-07-13T01:30:40;3.38;;;0.77;;
25237;SDS011;13185;50.872;5.306;2023-07-13T01:33:06;5.68;;;1.35;;
25237;SDS011;13185;50.872;5.306;2023-07-13T01:35:33;2.53;;;0.70;;
25237;SDS011;13185;50.872;5.306;2023-07-13T01:37:59;6.57;;;1.30;;
25237;SDS011;13185;50.872;5.306;2023-07-13T01:40:26;4.07;;;1.00;;
25237;SDS011;13185;50.872;5.306;2023-07-13T01:42:52;5.85;;;1.45;;
25237;SDS011;13185;50.872;5.306;2023-07-13T01:45:19;5.80;;;0.95;;
25237;SDS011;13185;50.872;5.306;2023-07-13T01:47:46;5.75;;;1.00;;
25237;SDS011;13185;50.872;5.306;2023-07-13T01:50:11;6.88;;;1.67;;
25237;SDS011;13185;50.872;5.306;2023-07-13T01:52:37;3.55;;;0.82;;
25237;SDS011;13185;50.872;5.306;2023-07-13T01:55:02;4.10;;;0.93;;
25237;SDS011;13185;50.872;5.306;2023-07-13T01:57:28;5.05;;;1.10;;
25237;SDS011;13185;50.872;5.306;2023-07-13T01:59:54;3.92;;;1.00;;
25237;SDS011;13185;50.872;5.306;2023-07-13T02:02:19;4.47;;;0.60;;
25237;SDS011;13185;50.872;5.306;2023-07-13T02:04:46;4.05;;;1.88;;
25237;SDS011;13185;50.872;5.306;2023-07-13T02:07:11;5.80;;;1.25;;
25237;SDS011;13185;50.872;5.306;2023-07-13T02:09:37;6.15;;;1.35;;
25237;SDS011;13185;50.872;5.306;2023-07-13T02:12:02;6.72;;;1.30;;
25237;SDS011;13185;50.872;5.306;2023-07-13T02:14:32;4.85;;;1.35;;
25237;SDS011;13185;50.872;5.306;2023-07-13T02:16:58;5.03;;;1.00;;
25237;SDS011;13185;50.872;5.306;2023-07-13T02:19:23;3.78;;;1.00;;
25237;SDS011;13185;50.872;5.306;2023-07-13T02:21:49;6.18;;;1.20;;
25237;SDS011;13185;50.872;5.306;2023-07-13T02:24:16;4.43;;;0.98;;
25237;SDS011;13185;50.872;5.306;2023-07-13T02:26:45;5.50;;;1.52;;
25237;SDS011;13185;50.872;5.306;2023-07-13T02:29:11;9.60;;;1.52;;
25237;SDS011;13185;50.872;5.306;2023-07-13T02:31:36;3.40;;;1.10;;
25237;SDS011;13185;50.872;5.306;2023-07-13T02:34:02;3.60;;;1.10;;
25237;SDS011;13185;50.872;5.306;2023-07-13T02:36:28;8.20;;;1.30;;
25237;SDS011;13185;50.872;5.306;2023-07-13T02:38:53;7.22;;;1.70;;
25237;SDS011;13185;50.872;5.306;2023-07-13T02:41:19;4.57;;;1.33;;
25237;SDS011;13185;50.872;5.306;2023-07-13T02:43:45;6.95;;;1.50;;
25237;SDS011;13185;50.872;5.306;2023-07-13T02:46:10;6.05;;;1.23;;
25237;SDS011;13185;50.872;5.306;2023-07-13T02:48:36;7.15;;;1.15;;
25237;SDS011;13185;50.872;5.306;2023-07-13T02:51:03;6.28;;;1.80;;
25237;SDS011;13185;50.872;5.306;2023-07-13T02:53:29;6.18;;;1.10;;
25237;SDS011;13185;50.872;5.306;2023-07-13T02:55:55;3.72;;;1.25;;
25237;SDS011;13185;50.872;5.306;2023-07-13T02:58:21;5.90;;;1.35;;
25237;SDS011;13185;50.872;5.306;2023-07-13T03:00:47;6.60;;;1.42;;
25237;SDS011;13185;50.872;5.306;2023-07-13T03:03:13;5.68;;;1.42;;
25237;SDS011;13185;50.872;5.306;2023-07-13T03:05:42;8.02;;;1.60;;
25237;SDS011;13185;50.872;5.306;2023-07-13T03:08:10;3.17;;;1.23;;
25237;SDS011;13185;50.872;5.306;2023-07-13T03:10:37;8.35;;;1.63;;
25237;SDS011;13185;50.872;5.306;2023-07-13T03:13:07;5.55;;;1.27;;
25237;SDS011;13185;50.872;5.306;2023-07-13T03:15:32;6.05;;;1.45;;
25237;SDS011;13185;50.872;5.306;2023-07-13T03:17:58;5.18;;;1.35;;
25237;SDS011;13185;50.872;5.306;2023-07-13T03:20:24;5.38;;;1.30;;
25237;SDS011;13185;50.872;5.306;2023-07-13T03:22:50;6.30;;;1.33;;
25237;SDS011;13185;50.872;5.306;2023-07-13T03:25:16;6.88;;;1.85;;
25237;SDS011;13185;50.872;5.306;2023-07-13T03:27:42;6.13;;;1.42;;
25237;SDS011;13185;50.872;5.306;2023-07-13T03:30:08;6.43;;;2.08;;
25237;SDS011;13185;50.872;5.306;2023-07-13T03:32:35;4.72;;;1.25;;
25237;SDS011;13185;50.872;5.306;2023-07-13T03:35:00;8.50;;;1.67;;
25237;SDS011;13185;50.872;5.306;2023-07-13T03:37:28;5.82;;;1.48;;
25237;SDS011;13185;50.872;5.306;2023-07-13T03:39:54;7.75;;;1.70;;
25237;SDS011;13185;50.872;5.306;2023-07-13T03:42:20;6.28;;;1.63;;
25237;SDS011;13185;50.872;5.306;2023-07-13T03:44:45;9.05;;;1.80;;
25237;SDS011;13185;50.872;5.306;2023-07-13T03:47:17;5.72;;;1.55;;
25237;SDS011;13185;50.872;5.306;2023-07-13T03:49:44;4.25;;;1.25;;
25237;SDS011;13185;50.872;5.306;2023-07-13T03:52:11;7.75;;;1.60;;
25237;SDS011;13185;50.872;5.306;2023-07-13T03:54:36;7.82;;;1.42;;
25237;SDS011;13185;50.872;5.306;2023-07-13T03:57:02;5.80;;;1.95;;
25237;SDS011;13185;50.872;5.306;2023-07-13T03:59:30;5.13;;;1.60;;
25237;SDS011;13185;50.872;5.306;2023-07-13T04:01:56;7.03;;;1.45;;
25237;SDS011;13185;50.872;5.306;2023-07-13T04:04:21;5.53;;;1.58;;
25237;SDS011;13185;50.872;5.306;2023-07-13T04:06:47;7.82;;;2.13;;
25237;SDS011;13185;50.872;5.306;2023-07-13T04:09:12;10.20;;;2.65;;
25237;SDS011;13185;50.872;5.306;2023-07-13T04:11:38;10.38;;;2.17;;
25237;SDS011;13185;50.872;5.306;2023-07-13T04:14:05;10.02;;;2.30;;
25237;SDS011;13185;50.872;5.306;2023-07-13T04:16:32;9.90;;;2.90;;
25237;SDS011;13185;50.872;5.306;2023-07-13T04:18:58;7.80;;;2.15;;
25237;SDS011;13185;50.872;5.306;2023-07-13T04:21:26;6.57;;;1.80;;
25237;SDS011;13185;50.872;5.306;2023-07-13T04:23:53;11.07;;;2.33;;
25237;SDS011;13185;50.872;5.306;2023-07-13T04:26:19;8.80;;;1.83;;
25237;SDS011;13185;50.872;5.306;2023-07-13T04:28:46;9.23;;;2.03;;
25237;SDS011;13185;50.872;5.306;2023-07-13T04:31:12;8.00;;;1.85;;
25237;SDS011;13185;50.872;5.306;2023-07-13T04:33:38;7.07;;;2.08;;
25237;SDS011;13185;50.872;5.306;2023-07-13T04:36:04;9.52;;;2.28;;
25237;SDS011;13185;50.872;5.306;2023-07-13T04:38:30;6.40;;;1.92;;
25237;SDS011;13185;50.872;5.306;2023-07-13T04:41:00;5.18;;;1.63;;
25237;SDS011;13185;50.872;5.306;2023-07-13T04:43:28;7.70;;;1.60;;
25237;SDS011;13185;50.872;5.306;2023-07-13T04:45:54;9.48;;;2.30;;
25237;SDS011;13185;50.872;5.306;2023-07-13T04:48:20;7.07;;;2.00;;
25237;SDS011;13185;50.872;5.306;2023-07-13T04:50:46;6.00;;;1.90;;
25237;SDS011;13185;50.872;5.306;2023-07-13T04:53:12;7.00;;;1.55;;
25237;SDS011;13185;50.872;5.306;2023-07-13T04:55:37;7.47;;;1.77;;
25237;SDS011;13185;50.872;5.306;2023-07-13T04:58:03;11.90;;;2.20;;
25237;SDS011;13185;50.872;5.306;2023-07-13T05:00:30;11.38;;;1.52;;
25237;SDS011;13185;50.872;5.306;2023-07-13T05:02:56;8.85;;;1.80;;
25237;SDS011;13185;50.872;5.306;2023-07-13T05:05:22;6.25;;;1.58;;
25237;SDS011;13185;50.872;5.306;2023-07-13T05:07:51;9.43;;;1.95;;
25237;SDS011;13185;50.872;5.306;2023-07-13T05:10:18;7.93;;;2.13;;
25237;SDS011;13185;50.872;5.306;2023-07-13T05:12:43;7.72;;;1.92;;
25237;SDS011;13185;50.872;5.306;2023-07-13T05:15:09;9.90;;;2.47;;
25237;SDS011;13185;50.872;5.306;2023-07-13T05:17:35;11.63;;;2.20;;
25237;SDS011;13185;50.872;5.306;2023-07-13T05:20:01;10.18;;;2.58;;
25237;SDS011;13185;50.872;5.306;2023-07-13T05:22:26;9.35;;;2.50;;
25237;SDS011;13185;50.872;5.306;2023-07-13T05:24:52;5.68;;;1.80;;
25237;SDS011;13185;50.872;5.306;2023-07-13T05:27:17;9.75;;;2.30;;
25237;SDS011;13185;50.872;5.306;2023-07-13T05:29:43;9.68;;;2.13;;
25237;SDS011;13185;50.872;5.306;2023-07-13T05:32:09;6.82;;;1.60;;
25237;SDS011;13185;50.872;5.306;2023-07-13T05:34:35;8.55;;;1.70;;
25237;SDS011;13185;50.872;5.306;2023-07-13T05:37:00;9.00;;;1.80;;
25237;SDS011;13185;50.872;5.306;2023-07-13T05:39:26;9.40;;;2.00;;
25237;SDS011;13185;50.872;5.306;2023-07-13T05:41:52;10.15;;;2.10;;
25237;SDS011;13185;50.872;5.306;2023-07-13T05:44:18;9.40;;;2.22;;
25237;SDS011;13185;50.872;5.306;2023-07-13T05:46:44;8.10;;;2.20;;
25237;SDS011;13185;50.872;5.306;2023-07-13T05:49:10;13.75;;;2.42;;
25237;SDS011;13185;50.872;5.306;2023-07-13T05:51:36;7.40;;;2.17;;
25237;SDS011;13185;50.872;5.306;2023-07-13T05:54:01;7.28;;;2.30;;
25237;SDS011;13185;50.872;5.306;2023-07-13T05:56:27;11.48;;;2.58;;
25237;SDS011;13185;50.872;5.306;2023-07-13T05:58:52;13.23;;;2.63;;
25237;SDS011;13185;50.872;5.306;2023-07-13T06:01:18;7.70;;;2.20;;
25237;SDS011;13185;50.872;5.306;2023-07-13T06:03:45;8.25;;;1.73;;
25237;SDS011;13185;50.872;5.306;2023-07-13T06:06:12;7.97;;;2.45;;
25237;SDS011;13185;50.872;5.306;2023-07-13T06:08:38;9.68;;;2.10;;
25237;SDS011;13185;50.872;5.306;2023-07-13T06:11:14;9.13;;;2.20;;
25237;SDS011;13185;50.872;5.306;2023-07-13T06:13:43;12.05;;;2.20;;
25237;SDS011;13185;50.872;5.306;2023-07-13T06:16:09;7.00;;;1.88;;
25237;SDS011;13185;50.872;5.306;2023-07-13T06:18:37;13.40;;;1.92;;
25237;SDS011;13185;50.872;5.306;2023-07-13T06:21:07;12.65;;;2.15;;
25237;SDS011;13185;50.872;5.306;2023-07-13T06:23:33;8.07;;;2.05;;
25237;SDS011;13185;50.872;5.306;2023-07-13T06:25:59;9.32;;;2.38;;
25237;SDS011;13185;50.872;5.306;2023-07-13T06:28:24;17.02;;;3.08;;
25237;SDS011;13185;50.872;5.306;2023-07-13T06:30:50;8.35;;;2.28;;
25237;SDS011;13185;50.872;5.306;2023-07-13T06:33:15;10.43;;;2.05;;
25237;SDS011;13185;50.872;5.306;2023-07-13T06:35:41;9.35;;;1.65;;
25237;SDS011;13185;50.872;5.306;2023-07-13T06:38:07;11.50;;;2.50;;
25237;SDS011;13185;50.872;5.306;2023-07-13T06:40:32;7.32;;;2.28;;
25237;SDS011;13185;50.872;5.306;2023-07-13T06:42:58;8.45;;;2.13;;
25237;SDS011;13185;50.872;5.306;2023-07-13T06:45:23;10.18;;;1.95;;
25237;SDS011;13185;50.872;5.306;2023-07-13T06:47:49;6.20;;;2.00;;
25237;SDS011;13185;50.872;5.306;2023-07-13T06:50:14;8.93;;;2.00;;
25237;SDS011;13185;50.872;5.306;2023-07-13T06:52:40;9.00;;;1.85;;
25237;SDS011;13185;50.872;5.306;2023-07-13T06:55:06;8.95;;;2.42;;
25237;SDS011;13185;50.872;5.306;2023-07-13T06:57:32;8.35;;;1.92;;
25237;SDS011;13185;50.872;5.306;2023-07-13T06:59:57;11.70;;;2.13;;
25237;SDS011;13185;50.872;5.306;2023-07-13T07:02:23;7.20;;;2.00;;
25237;SDS011;13185;50.872;5.306;2023-07-13T07:04:48;7.63;;;1.63;;
25237;SDS011;13185;50.872;5.306;2023-07-13T07:07:15;12.00;;;2.22;;
25237;SDS011;13185;50.872;5.306;2023-07-13T07:09:40;11.68;;;1.75;;
25237;SDS011;13185;50.872;5.306;2023-07-13T07:12:06;9.48;;;2.15;;
25237;SDS011;13185;50.872;5.306;2023-07-13T07:14:32;8.80;;;1.98;;
25237;SDS011;13185;50.872;5.306;2023-07-13T07:16:59;8.32;;;1.70;;
25237;SDS011;13185;50.872;5.306;2023-07-13T07:19:25;10.02;;;1.90;;
25237;SDS011;13185;50.872;5.306;2023-07-13T07:21:50;7.00;;;1.25;;
25237;SDS011;13185;50.872;5.306;2023-07-13T07:24:16;10.45;;;2.28;;
25237;SDS011;13185;50.872;5.306;2023-07-13T07:26:41;7.93;;;1.70;;
25237;SDS011;13185;50.872;5.306;2023-07-13T07:29:07;11.15;;;2.30;;
25237;SDS011;13185;50.872;5.306;2023-07-13T07:31:32;9.18;;;1.90;;
25237;SDS011;13185;50.872;5.306;2023-07-13T07:33:58;9.18;;;1.85;;
25237;SDS011;13185;50.872;5.306;2023-07-13T07:36:23;9.05;;;1.98;;
25237;SDS011;13185;50.872;5.306;2023-07-13T07:38:49;9.82;;;1.63;;
25237;SDS011;13185;50.872;5.306;2023-07-13T07:41:15;12.32;;;2.05;;
25237;SDS011;13185;50.872;5.306;2023-07-13T07:43:40;8.30;;;1.58;;
25237;SDS011;13185;50.872;5.306;2023-07-13T07:46:06;7.78;;;2.05;;
25237;SDS011;13185;50.872;5.306;2023-07-13T07:48:31;17.80;;;3.25;;
25237;SDS011;13185;50.872;5.306;2023-07-13T07:50:58;13.68;;;2.35;;
25237;SDS011;13185;50.872;5.306;2023-07-13T07:53:24;16.85;;;2.47;;
25237;SDS011;13185;50.872;5.306;2023-07-13T07:55:49;11.07;;;2.13;;
25237;SDS011;13185;50.872;5.306;2023-07-13T07:58:16;8.90;;;1.70;;
25237;SDS011;13185;50.872;5.306;2023-07-13T08:00:41;11.23;;;2.05;;
25237;SDS011;13185;50.872;5.306;2023-07-13T08:03:07;11.40;;;2.58;;
25237;SDS011;13185;50.872;5.306;2023-07-13T08:05:34;5.13;;;1.52;;
25237;SDS011;13185;50.872;5.306;2023-07-13T08:08:00;7.18;;;1.90;;
25237;SDS011;13185;50.872;5.306;2023-07-13T08:10:26;6.07;;;2.00;;
25237;SDS011;13185;50.872;5.306;2023-07-13T08:12:52;12.30;;;2.22;;
25237;SDS011;13185;50.872;5.306;2023-07-13T08:15:17;7.53;;;1.75;;
25237;SDS011;13185;50.872;5.306;2023-07-13T08:17:45;9.57;;;1.52;;
25237;SDS011;13185;50.872;5.306;2023-07-13T08:20:12;7.38;;;1.60;;
25237;SDS011;13185;50.872;5.306;2023-07-13T08:22:38;5.97;;;1.75;;
25237;SDS011;13185;50.872;5.306;2023-07-13T08:25:04;9.15;;;2.28;;
25237;SDS011;13185;50.872;5.306;2023-07-13T08:27:31;8.07;;;1.80;;
25237;SDS011;13185;50.872;5.306;2023-07-13T08:29:56;9.80;;;2.63;;
25237;SDS011;13185;50.872;5.306;2023-07-13T08:32:23;8.05;;;1.60;;
25237;SDS011;13185;50.872;5.306;2023-07-13T08:34:48;8.38;;;1.67;;
25237;SDS011;13185;50.872;5.306;2023-07-13T08:37:15;9.73;;;2.13;;
25237;SDS011;13185;50.872;5.306;2023-07-13T08:39:42;9.05;;;2.78;;
25237;SDS011;13185;50.872;5.306;2023-07-13T08:42:12;9.20;;;2.30;;
25237;SDS011;13185;50.872;5.306;2023-07-13T08:44:43;7.00;;;1.40;;
25237;SDS011;13185;50.872;5.306;2023-07-13T08:47:17;9.55;;;1.67;;
25237;SDS011;13185;50.872;5.306;2023-07-13T08:49:47;11.23;;;1.70;;
25237;SDS011;13185;50.872;5.306;2023-07-13T08:52:26;4.70;;;1.45;;
25237;SDS011;13185;50.872;5.306;2023-07-13T08:54:58;6.20;;;1.42;;
25237;SDS011;13185;50.872;5.306;2023-07-13T08:57:31;8.85;;;2.13;;
25237;SDS011;13185;50.872;5.306;2023-07-13T08:59:58;10.40;;;1.42;;
25237;SDS011;13185;50.872;5.306;2023-07-13T09:05:18;10.82;;;2.85;;
25237;SDS011;13185;50.872;5.306;2023-07-13T09:10:43;5.75;;;1.88;;
25237;SDS011;13185;50.872;5.306;2023-07-13T09:13:31;9.45;;;1.55;;
25237;SDS011;13185;50.872;5.306;2023-07-13T09:16:19;10.07;;;1.70;;
25237;SDS011;13185;50.872;5.306;2023-07-13T09:18:49;9.52;;;2.05;;
25237;SDS011;13185;50.872;5.306;2023-07-13T09:21:18;7.75;;;1.95;;
25237;SDS011;13185;50.872;5.306;2023-07-13T09:23:50;8.88;;;2.15;;
25237;SDS011;13185;50.872;5.306;2023-07-13T09:26:19;4.30;;;1.35;;
25237;SDS011;13185;50.872;5.306;2023-07-13T09:28:48;13.35;;;3.13;;
25237;SDS011;13185;50.872;5.306;2023-07-13T09:31:20;11.13;;;2.33;;
25237;SDS011;13185;50.872;5.306;2023-07-13T09:34:18;8.70;;;2.17;;
25237;SDS011;13185;50.872;5.306;2023-07-13T09:36:44;6.78;;;2.15;;
25237;SDS011;13185;50.872;5.306;2023-07-13T09:41:48;8.02;;;1.83;;
25237;SDS011;13185;50.872;5.306;2023-07-13T09:44:37;9.38;;;1.45;;
25237;SDS011;13185;50.872;5.306;2023-07-13T09:47:15;10.27;;;2.22;;
25237;SDS011;13185;50.872;5.306;2023-07-13T09:49:47;6.03;;;1.10;;
25237;SDS011;13185;50.872;5.306;2023-07-13T09:52:18;4.70;;;0.90;;
25237;SDS011;13185;50.872;5.306;2023-07-13T09:54:44;6.03;;;1.67;;
25237;SDS011;13185;50.872;5.306;2023-07-13T09:57:15;6.20;;;1.65;;
25237;SDS011;13185;50.872;5.306;2023-07-13T09:59:45;3.92;;;1.00;;
25237;SDS011;13185;50.872;5.306;2023-07-13T10:02:32;5.47;;;1.40;;
25237;SDS011;13185;50.872;5.306;2023-07-13T10:05:06;3.63;;;1.10;;
25237;SDS011;13185;50.872;5.306;2023-07-13T10:07:40;4.60;;;1.25;;
25237;SDS011;13185;50.872;5.306;2023-07-13T10:10:16;7.28;;;2.03;;
25237;SDS011;13185;50.872;5.306;2023-07-13T10:12:43;4.25;;;1.00;;
25237;SDS011;13185;50.872;5.306;2023-07-13T10:15:14;5.05;;;1.05;;
25237;SDS011;13185;50.872;5.306;2023-07-13T10:17:44;4.57;;;1.27;;
25237;SDS011;13185;50.872;5.306;2023-07-13T10:20:10;6.18;;;1.58;;
25237;SDS011;13185;50.872;5.306;2023-07-13T10:25:33;5.15;;;1.13;;
25237;SDS011;13185;50.872;5.306;2023-07-13T10:28:03;4.63;;;0.70;;
25237;SDS011;13185;50.872;5.306;2023-07-13T10:30:39;5.50;;;1.35;;
25237;SDS011;13185;50.872;5.306;2023-07-13T10:33:09;3.20;;;0.93;;
25237;SDS011;13185;50.872;5.306;2023-07-13T10:35:37;6.25;;;1.65;;
25237;SDS011;13185;50.872;5.306;2023-07-13T10:38:07;6.53;;;1.73;;
25237;SDS011;13185;50.872;5.306;2023-07-13T10:40:39;5.13;;;1.00;;
25237;SDS011;13185;50.872;5.306;2023-07-13T10:45:42;3.65;;;0.93;;
25237;SDS011;13185;50.872;5.306;2023-07-13T10:48:13;6.38;;;1.10;;
25237;SDS011;13185;50.872;5.306;2023-07-13T10:50:40;5.28;;;1.17;;
25237;SDS011;13185;50.872;5.306;2023-07-13T10:53:21;4.38;;;1.60;;
25237;SDS011;13185;50.872;5.306;2023-07-13T10:55:59;4.95;;;1.00;;
25237;SDS011;13185;50.872;5.306;2023-07-13T11:03:46;5.60;;;1.27;;
25237;SDS011;13185;50.872;5.306;2023-07-13T11:06:34;2.92;;;1.08;;
25237;SDS011;13185;50.872;5.306;2023-07-13T11:12:01;5.70;;;1.08;;
25237;SDS011;13185;50.872;5.306;2023-07-13T11:17:36;7.22;;;1.17;;
25237;SDS011;13185;50.872;5.306;2023-07-13T11:28:37;4.10;;;0.90;;
25237;SDS011;13185;50.872;5.306;2023-07-13T11:30:48;5.15;;;0.98;;
25237;SDS011;13185;50.872;5.306;2023-07-13T11:33:19;5.93;;;1.20;;
25237;SDS011;13185;50.872;5.306;2023-07-13T11:38:23;3.38;;;0.85;;
25237;SDS011;13185;50.872;5.306;2023-07-13T11:40:53;4.90;;;1.15;;
25237;SDS011;13185;50.872;5.306;2023-07-13T11:43:21;2.85;;;0.90;;
25237;SDS011;13185;50.872;5.306;2023-07-13T11:45:50;2.75;;;0.93;;
25237;SDS011;13185;50.872;5.306;2023-07-13T11:48:29;2.15;;;0.95;;
25237;SDS011;13185;50.872;5.306;2023-07-13T11:51:00;6.35;;;1.00;;
25237;SDS011;13185;50.872;5.306;2023-07-13T11:56:12;3.07;;;0.50;;
25237;SDS011;13185;50.872;5.306;2023-07-13T11:58:38;4.72;;;0.77;;
25237;SDS011;13185;50.872;5.306;2023-07-13T12:01:04;4.45;;;0.90;;
25237;SDS011;13185;50.872;5.306;2023-07-13T12:03:30;3.42;;;0.82;;
25237;SDS011;13185;50.872;5.306;2023-07-13T12:05:59;2.70;;;0.98;;
25237;SDS011;13185;50.872;5.306;2023-07-13T12:08:37;4.65;;;1.00;;
25237;SDS011;13185;50.872;5.306;2023-07-13T12:11:09;4.13;;;0.85;;
25237;SDS011;13185;50.872;5.306;2023-07-13T12:13:40;4.65;;;0.98;;
25237;SDS011;13185;50.872;5.306;2023-07-13T12:16:14;2.75;;;0.68;;
25237;SDS011;13185;50.872;5.306;2023-07-13T12:18:42;5.20;;;0.70;;
25237;SDS011;13185;50.872;5.306;2023-07-13T12:21:13;3.30;;;0.80;;
25237;SDS011;13185;50.872;5.306;2023-07-13T12:23:43;5.75;;;0.80;;
25237;SDS011;13185;50.872;5.306;2023-07-13T12:26:13;3.95;;;1.05;;
25237;SDS011;13185;50.872;5.306;2023-07-13T12:33:57;3.55;;;1.13;;
25237;SDS011;13185;50.872;5.306;2023-07-13T12:36:24;4.43;;;1.08;;
25237;SDS011;13185;50.872;5.306;2023-07-13T12:38:50;3.35;;;1.13;;
25237;SDS011;13185;50.872;5.306;2023-07-13T12:41:16;2.92;;;0.70;;
25237;SDS011;13185;50.872;5.306;2023-07-13T12:43:42;2.60;;;0.80;;
25237;SDS011;13185;50.872;5.306;2023-07-13T12:46:20;2.60;;;0.90;;
25237;SDS011;13185;50.872;5.306;2023-07-13T12:48:50;1.50;;;0.43;;
25237;SDS011;13185;50.872;5.306;2023-07-13T12:51:21;2.78;;;0.40;;
25237;SDS011;13185;50.872;5.306;2023-07-13T12:53:49;2.78;;;0.90;;
25237;SDS011;13185;50.872;5.306;2023-07-13T12:56:22;4.15;;;0.65;;
25237;SDS011;13185;50.872;5.306;2023-07-13T12:58:50;2.65;;;0.88;;
25237;SDS011;13185;50.872;5.306;2023-07-13T13:01:26;2.75;;;0.60;;
25237;SDS011;13185;50.872;5.306;2023-07-13T13:03:53;2.80;;;0.70;;
25237;SDS011;13185;50.872;5.306;2023-07-13T13:06:26;5.05;;;0.50;;
25237;SDS011;13185;50.872;5.306;2023-07-13T13:08:55;3.00;;;0.50;;
25237;SDS011;13185;50.872;5.306;2023-07-13T13:11:26;4.13;;;0.98;;
25237;SDS011;13185;50.872;5.306;2023-07-13T13:13:54;6.20;;;0.75;;
25237;SDS011;13185;50.872;5.306;2023-07-13T13:18:52;1.67;;;0.45;;
25237;SDS011;13185;50.872;5.306;2023-07-13T13:21:19;2.40;;;0.65;;
25237;SDS011;13185;50.872;5.306;2023-07-13T13:23:45;1.40;;;0.50;;
25237;SDS011;13185;50.872;5.306;2023-07-13T13:26:12;2.58;;;0.60;;
25237;SDS011;13185;50.872;5.306;2023-07-13T13:28:40;3.00;;;0.80;;
25237;SDS011;13185;50.872;5.306;2023-07-13T13:31:07;2.00;;;0.65;;
25237;SDS011;13185;50.872;5.306;2023-07-13T13:33:37;2.47;;;0.68;;
25237;SDS011;13185;50.872;5.306;2023-07-13T13:36:18;3.75;;;0.60;;
25237;SDS011;13185;50.872;5.306;2023-07-13T13:38:47;6.57;;;1.95;;
25237;SDS011;13185;50.872;5.306;2023-07-13T13:41:14;2.42;;;1.17;;
25237;SDS011;13185;50.872;5.306;2023-07-13T13:43:40;4.63;;;1.08;;
25237;SDS011;13185;50.872;5.306;2023-07-13T13:46:14;2.80;;;1.00;;
25237;SDS011;13185;50.872;5.306;2023-07-13T13:48:41;3.92;;;0.82;;
25237;SDS011;13185;50.872;5.306;2023-07-13T13:51:14;4.18;;;0.80;;
25237;SDS011;13185;50.872;5.306;2023-07-13T13:53:42;2.55;;;0.80;;
25237;SDS011;13185;50.872;5.306;2023-07-13T13:56:08;2.85;;;0.88;;
25237;SDS011;13185;50.872;5.306;2023-07-13T13:58:33;2.47;;;0.70;;
25237;SDS011;13185;50.872;5.306;2023-07-13T14:00:59;3.58;;;0.68;;
25237;SDS011;13185;50.872;5.306;2023-07-13T14:03:25;3.50;;;1.00;;
25237;SDS011;13185;50.872;5.306;2023-07-13T14:05:53;3.60;;;1.63;;
25237;SDS011;13185;50.872;5.306;2023-07-13T14:08:19;3.50;;;0.82;;
25237;SDS011;13185;50.872;5.306;2023-07-13T14:10:46;2.55;;;0.90;;
25237;SDS011;13185;50.872;5.306;2023-07-13T14:13:17;3.20;;;0.77;;
25237;SDS011;13185;50.872;5.306;2023-07-13T14:15:46;3.75;;;0.90;;
25237;SDS011;13185;50.872;5.306;2023-07-13T14:18:12;3.53;;;0.80;;
25237;SDS011;13185;50.872;5.306;2023-07-13T14:20:43;3.25;;;0.73;;
25237;SDS011;13185;50.872;5.306;2023-07-13T14:23:13;7.88;;;1.35;;
25237;SDS011;13185;50.872;5.306;2023-07-13T14:25:40;4.70;;;1.15;;
25237;SDS011;13185;50.872;5.306;2023-07-13T14:28:26;2.65;;;1.08;;
25237;SDS011;13185;50.872;5.306;2023-07-13T14:30:52;2.65;;;0.93;;
25237;SDS011;13185;50.872;5.306;2023-07-13T14:33:19;3.67;;;0.88;;
25237;SDS011;13185;50.872;5.306;2023-07-13T14:35:45;2.63;;;0.70;;
25237;SDS011;13185;50.872;5.306;2023-07-13T14:38:16;3.40;;;0.70;;
25237;SDS011;13185;50.872;5.306;2023-07-13T14:40:44;2.80;;;0.80;;
25237;SDS011;13185;50.872;5.306;2023-07-13T14:43:10;2.42;;;0.80;;
25237;SDS011;13185;50.872;5.306;2023-07-13T14:45:38;2.28;;;0.85;;
25237;SDS011;13185;50.872;5.306;2023-07-13T14:48:16;2.20;;;1.02;;
25237;SDS011;13185;50.872;5.306;2023-07-13T14:50:46;1.55;;;0.63;;
25237;SDS011;13185;50.872;5.306;2023-07-13T14:53:12;4.20;;;0.88;;
25237;SDS011;13185;50.872;5.306;2023-07-13T14:55:38;3.10;;;0.70;;
25237;SDS011;13185;50.872;5.306;2023-07-13T14:58:04;3.08;;;0.88;;
25237;SDS011;13185;50.872;5.306;2023-07-13T15:00:31;10.02;;;5.18;;
25237;SDS011;13185;50.872;5.306;2023-07-13T15:02:57;3.33;;;1.20;;
25237;SDS011;13185;50.872;5.306;2023-07-13T15:05:30;2.50;;;0.93;;
25237;SDS011;13185;50.872;5.306;2023-07-13T15:08:00;2.75;;;0.50;;
25237;SDS011;13185;50.872;5.306;2023-07-13T15:10:29;3.17;;;0.70;;
25237;SDS011;13185;50.872;5.306;2023-07-13T15:12:58;3.42;;;0.50;;
25237;SDS011;13185;50.872;5.306;2023-07-13T15:15:27;2.60;;;0.73;;
25237;SDS011;13185;50.872;5.306;2023-07-13T15:17:54;1.98;;;0.68;;
25237;SDS011;13185;50.872;5.306;2023-07-13T15:20:26;1.55;;;0.40;;
25237;SDS011;13185;50.872;5.306;2023-07-13T15:22:54;2.75;;;0.77;;
25237;SDS011;13185;50.872;5.306;2023-07-13T15:25:22;2.33;;;0.68;;
25237;SDS011;13185;50.872;5.306;2023-07-13T15:27:50;4.32;;;0.98;;
25237;SDS011;13185;50.872;5.306;2023-07-13T15:30:16;4.45;;;1.00;;
25237;SDS011;13185;50.872;5.306;2023-07-13T15:32:42;2.80;;;0.70;;
25237;SDS011;13185;50.872;5.306;2023-07-13T15:35:16;2.88;;;0.70;;
25237;SDS011;13185;50.872;5.306;2023-07-13T15:37:45;2.05;;;0.68;;
25237;SDS011;13185;50.872;5.306;2023-07-13T15:40:12;3.28;;;0.60;;